Time;durP1;ratioP1;P1;durP2;ratioP2;P2;SDS_P1;SDS_P2;PMS_P1;PMS_P2;Temp;Humidity;BMP_temperature;BMP_pressure;BME280_temperature;BME280_humidity;BME280_pressure;Samples;Min_cycle;Max_cycle;Signal;HPM_P1;HPM_P2
2023/05/25 00:00:14;;;;;;;5.20;2.10;;;8.40;99.90;;;;;;4982252;28;20214;-84
2023/05/25 00:02:41;;;;;;;7.85;3.08;;;8.50;99.90;;;;;;4983487;28;20172;-84
2023/05/25 00:05:08;;;;;;;10.00;2.75;;;8.30;99.90;;;;;;4972437;28;20350;-83
2023/05/25 00:07:34;;;;;;;10.93;3.03;;;8.20;99.90;;;;;;4979351;28;20183;-82
2023/05/25 00:09:59;;;;;;;5.30;2.47;;;8.20;99.90;;;;;;4981510;28;20176;-81
2023/05/25 00:12:25;;;;;;;5.97;2.40;;;8.10;99.90;;;;;;4965686;28;20207;-81
2023/05/25 00:14:50;;;;;;;5.80;2.47;;;8.10;99.90;;;;;;4965406;28;20258;-84
2023/05/25 00:17:17;;;;;;;4.83;1.70;;;8.10;99.90;;;;;;4967669;28;20202;-83
2023/05/25 00:19:43;;;;;;;5.18;2.40;;;8.20;99.90;;;;;;4977438;28;20168;-81
2023/05/25 00:22:10;;;;;;;7.97;2.60;;;8.20;99.90;;;;;;4984447;28;20247;-84
2023/05/25 00:24:38;;;;;;;3.75;1.95;;;8.20;99.90;;;;;;4965878;28;20260;-83
2023/05/25 00:27:03;;;;;;;12.15;3.28;;;8.10;99.90;;;;;;4962236;28;20176;-82
2023/05/25 00:29:29;;;;;;;5.00;2.23;;;8.00;99.90;;;;;;4960916;28;20219;-84
2023/05/25 00:31:55;;;;;;;2.77;2.00;;;7.90;99.90;;;;;;4965119;28;20196;-83
2023/05/25 00:34:21;;;;;;;5.23;2.37;;;7.90;99.90;;;;;;4985050;28;20731;-83
2023/05/25 00:36:47;;;;;;;3.22;2.13;;;7.80;99.90;;;;;;4973514;28;20441;-82
2023/05/25 00:39:16;;;;;;;3.90;2.10;;;7.80;99.90;;;;;;4987324;28;20640;-84
2023/05/25 00:41:44;;;;;;;6.38;2.20;;;7.80;99.90;;;;;;4985744;28;20186;-83
2023/05/25 00:44:10;;;;;;;7.28;2.05;;;7.70;99.90;;;;;;4987708;28;20768;-82
2023/05/25 00:46:46;;;;;;;4.57;2.05;;;7.70;99.90;;;;;;4990021;28;20179;-82
2023/05/25 00:49:17;;;;;;;3.65;2.17;;;7.60;99.90;;;;;;4974955;28;20179;-85
2023/05/25 00:51:45;;;;;;;6.38;2.47;;;7.50;99.90;;;;;;4979141;28;20246;-85
2023/05/25 00:54:13;;;;;;;10.02;2.45;;;7.40;99.90;;;;;;4974128;28;20188;-82
2023/05/25 00:56:41;;;;;;;4.95;2.65;;;7.40;99.90;;;;;;4977376;28;20174;-83
2023/05/25 00:59:08;;;;;;;4.57;2.38;;;7.30;99.90;;;;;;4975203;28;20642;-83
2023/05/25 01:01:38;;;;;;;5.68;2.92;;;7.20;99.90;;;;;;4966148;28;20584;-81
2023/05/25 01:04:08;;;;;;;3.75;2.70;;;7.10;99.90;;;;;;4983998;28;20191;-84
2023/05/25 01:06:37;;;;;;;8.20;2.63;;;7.10;99.90;;;;;;4975987;28;20680;-84
2023/05/25 01:09:04;;;;;;;11.13;2.80;;;7.10;99.90;;;;;;4972744;28;20957;-84
2023/05/25 01:11:40;;;;;;;11.55;3.20;;;7.00;99.90;;;;;;4972693;28;20241;-81
2023/05/25 01:14:05;;;;;;;7.85;2.65;;;7.00;99.90;;;;;;4981468;28;20249;-80
2023/05/25 01:16:31;;;;;;;5.87;2.03;;;7.00;99.90;;;;;;4968707;28;20187;-81
2023/05/25 01:18:57;;;;;;;12.10;3.33;;;7.00;99.90;;;;;;4970223;28;20193;-82
2023/05/25 01:21:40;;;;;;;6.47;2.63;;;6.90;99.90;;;;;;4966283;28;20447;-82
2023/05/25 01:24:32;;;;;;;9.63;2.40;;;6.80;99.90;;;;;;4981371;28;20442;-83
2023/05/25 01:27:07;;;;;;;5.97;2.05;;;6.80;99.90;;;;;;4981638;28;20238;-81
2023/05/25 01:29:34;;;;;;;4.90;3.35;;;6.80;99.90;;;;;;4967918;28;21883;-83
2023/05/25 01:32:02;;;;;;;6.50;2.13;;;6.80;99.90;;;;;;4969799;28;20554;-82
2023/05/25 01:34:30;;;;;;;10.82;3.03;;;6.90;99.90;;;;;;4978457;28;20210;-81
2023/05/25 01:36:56;;;;;;;8.40;2.55;;;6.90;99.90;;;;;;4981025;28;20190;-83
2023/05/25 01:39:22;;;;;;;8.30;3.43;;;6.90;99.90;;;;;;4962407;28;20191;-83
2023/05/25 01:41:47;;;;;;;5.83;2.33;;;6.90;99.90;;;;;;4972426;28;20512;-83
2023/05/25 01:44:14;;;;;;;5.43;2.87;;;7.10;99.90;;;;;;4982982;28;20521;-83
2023/05/25 01:46:40;;;;;;;14.40;3.83;;;7.10;99.90;;;;;;4987487;28;20787;-85
2023/05/25 01:49:31;;;;;;;8.57;2.92;;;7.10;99.90;;;;;;4985899;28;20222;-85
2023/05/25 01:52:10;;;;;;;5.25;3.65;;;7.20;99.90;;;;;;4975058;28;20191;-84
2023/05/25 01:54:46;;;;;;;3.63;1.95;;;7.20;99.90;;;;;;4995657;28;20205;-85
2023/05/25 01:57:14;;;;;;;7.75;2.72;;;7.20;99.90;;;;;;4992488;28;20745;-85
2023/05/25 01:59:42;;;;;;;8.32;2.25;;;7.20;99.90;;;;;;4982574;28;20175;-83
2023/05/25 02:02:09;;;;;;;5.50;2.47;;;7.20;99.90;;;;;;4971191;28;20271;-84
2023/05/25 02:04:35;;;;;;;2.55;1.80;;;7.20;99.90;;;;;;4988399;28;20346;-84
2023/05/25 02:07:03;;;;;;;3.47;2.17;;;7.20;99.90;;;;;;4987491;28;20231;-84
2023/05/25 02:09:29;;;;;;;9.18;2.45;;;7.20;99.90;;;;;;4971641;28;20187;-83
2023/05/25 02:11:54;;;;;;;6.33;2.00;;;7.20;99.90;;;;;;4972719;28;20218;-84
2023/05/25 02:14:20;;;;;;;4.00;2.30;;;7.20;99.90;;;;;;4966570;28;20289;-84
2023/05/25 02:16:46;;;;;;;5.23;2.43;;;7.20;99.90;;;;;;4970373;28;21105;-83
2023/05/25 02:19:13;;;;;;;3.97;2.07;;;7.20;99.90;;;;;;4970705;28;20617;-83
2023/05/25 02:21:40;;;;;;;5.50;2.45;;;7.20;99.90;;;;;;4970289;28;20184;-82
2023/05/25 02:24:08;;;;;;;5.38;2.42;;;;;;;;;;4984639;28;20192;-84
2023/05/25 02:26:34;;;;;;;2.50;2.30;;;7.20;99.90;;;;;;4972328;28;20188;-83
2023/05/25 02:29:00;;;;;;;10.13;3.60;;;7.20;99.90;;;;;;4988604;28;20192;-85
2023/05/25 02:31:26;;;;;;;6.10;2.28;;;7.10;99.90;;;;;;4997650;23;20626;-83
2023/05/25 02:33:52;;;;;;;11.18;3.15;;;7.00;99.90;;;;;;4961517;28;20186;-84
2023/05/25 02:36:19;;;;;;;8.20;2.40;;;7.00;99.90;;;;;;4979074;28;20632;-84
2023/05/25 02:38:46;;;;;;;6.60;2.67;;;7.00;99.90;;;;;;4961371;28;20192;-84
2023/05/25 02:41:11;;;;;;;6.93;2.55;;;7.00;99.90;;;;;;4978374;28;20191;-84
2023/05/25 02:43:38;;;;;;;7.37;2.77;;;7.10;99.90;;;;;;4978515;28;20175;-84
2023/05/25 02:46:03;;;;;;;8.77;3.28;;;7.10;99.90;;;;;;4978598;28;20176;-84
2023/05/25 02:48:29;;;;;;;7.87;2.37;;;7.20;99.90;;;;;;4977778;28;20268;-83
2023/05/25 02:50:55;;;;;;;5.17;2.60;;;7.20;99.90;;;;;;4977998;28;20485;-84
2023/05/25 02:53:20;;;;;;;6.90;2.63;;;7.10;99.90;;;;;;4978520;28;20168;-83
2023/05/25 02:55:46;;;;;;;3.67;2.67;;;7.10;99.90;;;;;;4978468;28;20176;-83
2023/05/25 02:58:11;;;;;;;4.47;2.13;;;7.10;99.90;;;;;;4978483;28;20179;-83
2023/05/25 03:00:38;;;;;;;8.30;2.97;;;7.10;99.90;;;;;;4978489;28;20757;-83
2023/05/25 03:03:03;;;;;;;4.22;2.50;;;7.10;99.90;;;;;;4978808;28;20640;-84
2023/05/25 03:05:29;;;;;;;3.77;2.17;;;7.00;99.90;;;;;;4979358;28;20180;-83
2023/05/25 03:07:54;;;;;;;7.10;2.70;;;7.00;99.90;;;;;;4978772;28;20175;-83
2023/05/25 03:10:20;;;;;;;7.73;3.23;;;6.90;99.90;;;;;;4962226;28;20196;-84
2023/05/25 03:12:46;;;;;;;11.33;2.63;;;6.90;99.90;;;;;;4961156;28;20263;-83
2023/05/25 03:15:13;;;;;;;5.90;3.50;;;6.80;99.90;;;;;;4960536;28;20227;-83
2023/05/25 03:17:39;;;;;;;4.72;2.75;;;6.70;99.90;;;;;;4979440;28;20575;-83
2023/05/25 03:20:05;;;;;;;6.37;2.60;;;6.70;99.90;;;;;;4961297;28;20196;-83
2023/05/25 03:22:30;;;;;;;4.25;2.30;;;6.70;99.90;;;;;;4961777;28;20456;-83
2023/05/25 03:24:58;;;;;;;5.93;3.40;;;6.50;99.90;;;;;;4979141;28;20172;-83
2023/05/25 03:27:24;;;;;;;4.15;2.20;;;6.50;99.90;;;;;;4977764;28;20172;-83
2023/05/25 03:29:50;;;;;;;3.90;2.33;;;6.50;99.90;;;;;;4960494;28;20274;-83
2023/05/25 03:32:15;;;;;;;7.10;2.65;;;6.50;99.90;;;;;;4978142;28;20196;-82
2023/05/25 03:34:41;;;;;;;14.60;2.30;;;6.60;99.90;;;;;;4979239;28;20175;-82
2023/05/25 03:37:07;;;;;;;6.83;2.80;;;6.70;99.90;;;;;;4978258;28;20641;-82
2023/05/25 03:39:32;;;;;;;9.30;2.87;;;6.80;99.90;;;;;;4977647;28;20204;-82
2023/05/25 03:41:58;;;;;;;2.77;2.30;;;6.70;99.90;;;;;;4977507;28;20176;-81
2023/05/25 03:44:24;;;;;;;8.70;3.30;;;6.80;99.90;;;;;;4977435;28;20263;-82
2023/05/25 03:46:50;;;;;;;7.40;3.05;;;6.90;99.90;;;;;;4977275;28;20167;-82
2023/05/25 03:49:15;;;;;;;12.90;2.67;;;7.00;99.90;;;;;;4976329;28;20601;-82
2023/05/25 03:51:41;;;;;;;5.63;2.97;;;7.10;99.90;;;;;;4977426;28;20218;-83
2023/05/25 03:54:07;;;;;;;8.30;3.30;;;7.10;99.90;;;;;;4976881;28;20223;-82
2023/05/25 03:56:33;;;;;;;5.03;2.80;;;7.10;99.90;;;;;;4976594;28;20172;-82
2023/05/25 03:58:59;;;;;;;4.17;3.00;;;7.20;99.90;;;;;;4975787;28;20226;-81
2023/05/25 04:01:25;;;;;;;9.23;1.92;;;7.40;99.90;;;;;;4975992;28;20255;-81
2023/05/25 04:03:51;;;;;;;3.72;2.38;;;7.40;99.90;;;;;;4962905;28;20184;-82
2023/05/25 04:06:18;;;;;;;5.68;2.60;;;7.50;99.90;;;;;;4967984;28;20176;-83
2023/05/25 04:08:44;;;;;;;5.18;2.50;;;7.60;99.90;;;;;;4964621;28;21612;-83
2023/05/25 04:11:10;;;;;;;3.70;2.50;;;7.70;99.90;;;;;;4964486;28;20216;-83
2023/05/25 04:13:38;;;;;;;4.78;2.58;;;7.80;99.90;;;;;;4962693;28;20194;-84
2023/05/25 04:16:05;;;;;;;6.95;3.28;;;7.80;99.90;;;;;;4964624;28;20184;-83
2023/05/25 04:18:32;;;;;;;6.18;3.00;;;7.80;99.90;;;;;;4963087;28;20200;-83
2023/05/25 04:20:57;;;;;;;5.70;2.65;;;8.20;99.90;;;;;;4960322;28;20210;-82
2023/05/25 04:23:23;;;;;;;3.93;2.67;;;9.50;99.90;;;;;;4945409;28;20196;-83
2023/05/25 04:25:52;;;;;;;7.10;2.20;;;11.10;99.90;;;;;;4961765;28;20184;-83
2023/05/25 04:28:18;;;;;;;8.93;3.22;;;12.60;99.90;;;;;;4967964;28;20249;-83
2023/05/25 04:30:43;;;;;;;7.30;2.93;;;14.20;99.90;;;;;;4966279;28;20227;-84
2023/05/25 04:33:12;;;;;;;4.63;3.27;;;16.70;99.90;;;;;;4962627;28;20183;-84
2023/05/25 04:35:39;;;;;;;3.10;2.33;;;17.70;99.90;;;;;;4962495;28;20242;-84
2023/05/25 04:38:06;;;;;;;12.43;4.27;;;;;;;;;;4965527;28;20436;-84
2023/05/25 04:40:32;;;;;;;6.43;3.10;;;;;;;;;;4963144;28;20491;-83
2023/05/25 04:42:58;;;;;;;6.87;2.13;;;19.70;99.90;;;;;;4961997;28;20603;-82
2023/05/25 04:45:23;;;;;;;6.93;2.40;;;20.50;99.90;;;;;;4970589;28;20551;-82
2023/05/25 04:47:49;;;;;;;3.67;2.40;;;;;;;;;;4972113;28;20507;-82
2023/05/25 04:50:15;;;;;;;4.83;3.43;;;20.10;97.20;;;;;;4965962;28;20398;-82
2023/05/25 04:52:41;;;;;;;6.30;2.40;;;;;;;;;;4965219;28;20538;-82
2023/05/25 04:55:08;;;;;;;6.43;3.43;;;24.50;84.60;;;;;;4964345;28;20183;-84
2023/05/25 04:57:34;;;;;;;9.93;3.33;;;24.90;90.10;;;;;;4959658;28;20490;-83
2023/05/25 04:59:59;;;;;;;6.90;2.63;;;25.60;85.10;;;;;;4961519;28;20546;-82
2023/05/25 05:02:25;;;;;;;5.23;2.57;;;;;;;;;;4963502;28;20186;-82
2023/05/25 05:04:52;;;;;;;5.97;2.77;;;;;;;;;;4967731;28;20192;-83
2023/05/25 05:07:19;;;;;;;5.77;2.77;;;;;;;;;;4982636;28;20437;-82
2023/05/25 05:09:45;;;;;;;8.60;3.13;;;25.20;71.80;;;;;;4983337;28;20446;-81
2023/05/25 05:12:10;;;;;;;7.60;2.77;;;25.10;63.80;;;;;;4970587;28;20466;-81
2023/05/25 05:14:36;;;;;;;4.83;3.23;;;25.30;64.80;;;;;;4957643;28;20538;-81
2023/05/25 05:17:02;;;;;;;8.03;2.93;;;;;;;;;;4971112;28;20251;-81
2023/05/25 05:19:28;;;;;;;4.90;2.40;;;;;;;;;;4950458;28;20243;-81
2023/05/25 05:21:54;;;;;;;5.70;2.80;;;;;;;;;;4970258;28;20467;-81
2023/05/25 05:24:19;;;;;;;6.47;2.97;;;26.10;67.00;;;;;;4966932;28;20497;-80
2023/05/25 05:26:45;;;;;;;17.20;3.37;;;;;;;;;;4967352;28;20438;-81
2023/05/25 05:29:11;;;;;;;4.40;2.97;;;26.20;66.30;;;;;;4968056;28;20207;-81
2023/05/25 05:31:37;;;;;;;6.27;3.23;;;;;;;;;;4969722;28;20466;-81
2023/05/25 05:34:03;;;;;;;9.40;3.20;;;;;;;;;;4972106;28;20426;-81
2023/05/25 05:36:32;;;;;;;6.43;3.17;;;;;;;;;;4963089;28;20446;-80
2023/05/25 05:38:58;;;;;;;9.73;2.80;;;;;;;;;;4965786;28;20458;-80
2023/05/25 05:41:23;;;;;;;3.53;2.90;;;24.80;55.70;;;;;;4962582;28;20916;-80
2023/05/25 05:43:49;;;;;;;9.43;2.80;;;25.90;55.70;;;;;;4958090;29;20936;-83
2023/05/25 05:46:14;;;;;;;9.80;4.40;;;25.30;56.90;;;;;;4965482;28;20191;-83
2023/05/25 05:48:40;;;;;;;7.03;3.07;;;25.40;57.60;;;;;;4970598;28;20252;-83
2023/05/25 05:51:06;;;;;;;10.30;3.30;;;25.10;57.50;;;;;;4969877;28;20239;-82
2023/05/25 05:53:34;;;;;;;4.63;2.97;;;25.00;57.40;;;;;;4969058;28;20905;-82
2023/05/25 05:56:00;;;;;;;6.57;3.40;;;;;;;;;;4967842;28;20172;-80
2023/05/25 05:58:25;;;;;;;10.80;2.93;;;26.30;57.90;;;;;;4952194;28;20454;-82
2023/05/25 06:00:52;;;;;;;6.63;3.17;;;26.00;55.40;;;;;;4955831;28;20459;-82
2023/05/25 06:03:17;;;;;;;6.00;3.03;;;25.10;55.60;;;;;;4976510;28;20188;-83
2023/05/25 06:05:43;;;;;;;3.60;2.87;;;24.40;57.50;;;;;;4966137;28;20453;-82
2023/05/25 06:08:09;;;;;;;10.93;3.10;;;;;;;;;;4966460;28;20418;-83
2023/05/25 06:10:35;;;;;;;6.77;3.10;;;;;;;;;;4965701;28;20291;-81
2023/05/25 06:13:01;;;;;;;13.73;3.90;;;;;;;;;;4965881;28;20431;-81
2023/05/25 06:15:27;;;;;;;5.70;3.20;;;;;;;;;;4946254;28;20427;-80
2023/05/25 06:17:53;;;;;;;7.40;3.50;;;;;;;;;;4966353;28;20427;-81
2023/05/25 06:20:19;;;;;;;8.43;2.97;;;;;;;;;;4946998;28;20850;-83
2023/05/25 06:22:45;;;;;;;5.67;3.13;;;;;;;;;;4967271;28;20890;-82
2023/05/25 06:25:11;;;;;;;10.33;4.03;;;;;;;;;;4968870;28;20987;-80
2023/05/25 06:27:37;;;;;;;9.50;4.17;;;;;;;;;;4969802;28;20497;-82
2023/05/25 06:30:03;;;;;;;5.23;2.70;;;25.90;55.60;;;;;;4969829;28;20909;-82
2023/05/25 06:32:28;;;;;;;7.27;3.47;;;;;;;;;;4966608;28;20514;-80
2023/05/25 06:34:55;;;;;;;7.70;3.90;;;;;;;;;;4964360;28;20436;-83
2023/05/25 06:37:21;;;;;;;5.33;2.97;;;;;;;;;;4969359;28;20435;-83
2023/05/25 06:39:47;;;;;;;6.90;3.17;;;;;;;;;;4966653;28;20463;-83
2023/05/25 06:42:13;;;;;;;9.00;2.97;;;;;;;;;;4965903;28;20495;-83
2023/05/25 06:44:38;;;;;;;6.30;3.57;;;26.30;52.50;;;;;;4969684;28;20473;-83
2023/05/25 06:47:04;;;;;;;7.63;3.50;;;25.80;55.60;;;;;;4968361;28;20814;-82
2023/05/25 06:49:30;;;;;;;7.83;3.63;;;;;;;;;;4957025;28;20318;-83
2023/05/25 06:51:56;;;;;;;5.23;3.37;;;;;;;;;;4968788;28;20574;-83
2023/05/25 06:54:21;;;;;;;12.13;3.47;;;27.80;52.20;;;;;;4968767;28;21059;-82
2023/05/25 06:56:47;;;;;;;9.07;3.80;;;26.20;53.40;;;;;;4968061;28;20601;-83
2023/05/25 06:59:12;;;;;;;6.67;2.93;;;24.90;53.50;;;;;;4964215;28;20180;-82
2023/05/25 07:01:38;;;;;;;5.37;3.37;;;25.20;54.60;;;;;;4963843;28;20218;-83
2023/05/25 07:04:03;;;;;;;12.03;3.50;;;25.30;55.10;;;;;;4969366;28;20195;-82
2023/05/25 07:06:29;;;;;;;7.67;3.90;;;25.60;55.40;;;;;;4969277;28;20648;-83
2023/05/25 07:08:54;;;;;;;11.73;3.67;;;24.00;53.90;;;;;;4972514;28;20604;-81
2023/05/25 07:11:20;;;;;;;10.57;3.57;;;22.90;57.00;;;;;;4968928;28;20299;-84
2023/05/25 07:13:46;;;;;;;8.57;3.53;;;22.90;57.20;;;;;;4967730;28;20211;-83
2023/05/25 07:16:12;;;;;;;7.93;4.10;;;23.20;58.20;;;;;;4977329;28;20415;-83
2023/05/25 07:18:41;;;;;;;6.90;3.60;;;23.00;57.40;;;;;;4973616;28;20471;-82
2023/05/25 07:21:08;;;;;;;8.63;3.50;;;23.00;58.50;;;;;;4954028;28;20462;-82
2023/05/25 07:23:34;;;;;;;7.43;3.60;;;23.70;59.20;;;;;;4971301;28;20461;-82
2023/05/25 07:26:00;;;;;;;7.23;3.70;;;25.10;57.90;;;;;;4968256;28;20447;-83
2023/05/25 07:28:26;;;;;;;7.33;4.03;;;24.70;57.00;;;;;;4963841;28;20660;-82
2023/05/25 07:30:51;;;;;;;3.83;3.00;;;23.70;55.90;;;;;;4962942;28;20223;-82
2023/05/25 07:33:17;;;;;;;5.23;3.10;;;23.50;57.90;;;;;;4964684;28;20253;-82
2023/05/25 07:35:42;;;;;;;6.37;3.10;;;22.90;58.60;;;;;;4971214;28;20645;-89
2023/05/25 07:38:08;;;;;;;7.33;3.90;;;23.00;59.00;;;;;;4975383;28;20204;-91
2023/05/25 07:40:34;;;;;;;7.83;4.30;;;;;;;;;;4953444;29;20260;-89
2023/05/25 07:43:00;;;;;;;6.83;3.47;;;;;;;;;;4959279;28;20439;-89
2023/05/25 07:45:26;;;;;;;9.47;3.97;;;;;;;;;;4970098;28;21318;-88
2023/05/25 07:47:52;;;;;;;5.27;3.63;;;;;;;;;;4969524;28;20432;-89
2023/05/25 07:50:18;;;;;;;7.73;3.80;;;;;;;;;;4975770;28;20435;-88
2023/05/25 07:52:45;;;;;;;6.00;4.00;;;;;;;;;;4977002;28;20816;-89
2023/05/25 07:55:11;;;;;;;10.20;3.67;;;;;;;;;;4975032;28;20414;-89
2023/05/25 07:57:37;;;;;;;7.87;3.90;;;;;;;;;;4976643;28;20775;-89
2023/05/25 08:00:07;;;;;;;8.30;3.20;;;25.90;66.70;;;;;;4974886;28;20962;-90
2023/05/25 08:02:33;;;;;;;5.93;3.43;;;;;;;;;;4974011;28;20942;-91
2023/05/25 08:05:03;;;;;;;9.30;4.50;;;;;;;;;;4970001;28;20559;-88
2023/05/25 08:07:30;;;;;;;7.80;4.13;;;;;;;;;;4973657;28;20521;-88
2023/05/25 08:09:55;;;;;;;9.30;5.00;;;;;;;;;;4969269;28;20456;-89
2023/05/25 08:12:21;;;;;;;9.37;5.17;;;;;;;;;;4967478;28;20463;-88
2023/05/25 08:14:47;;;;;;;5.60;4.03;;;;;;;;;;4959519;28;20467;-88
2023/05/25 08:17:14;;;;;;;7.00;3.70;;;;;;;;;;4965299;28;20462;-89
2023/05/25 08:19:40;;;;;;;6.33;3.70;;;;;;;;;;4968072;28;20432;-88
2023/05/25 08:22:06;;;;;;;7.93;3.97;;;;;;;;;;4952459;28;20429;-88
2023/05/25 08:24:31;;;;;;;6.40;4.20;;;;;;;;;;4949452;28;20510;-88
2023/05/25 08:26:57;;;;;;;5.57;4.00;;;;;;;;;;4950492;28;20432;-88
2023/05/25 08:29:23;;;;;;;9.23;4.63;;;;;;;;;;4975089;28;20439;-89
2023/05/25 08:31:50;;;;;;;3.97;3.40;;;;;;;;;;4963183;23;20490;-87
2023/05/25 08:34:16;;;;;;;7.37;4.13;;;;;;;;;;4963165;28;20432;-86
2023/05/25 08:36:42;;;;;;;14.40;4.10;;;;;;;;;;4977896;28;21008;-87
2023/05/25 08:39:09;;;;;;;8.50;4.07;;;;;;;;;;4972733;28;20498;-86
2023/05/25 08:41:35;;;;;;;6.97;4.40;;;27.10;56.60;;;;;;4949413;28;20451;-86
2023/05/25 08:44:05;;;;;;;10.07;4.87;;;;;;;;;;4972611;28;20527;-87
2023/05/25 08:46:31;;;;;;;9.33;4.90;;;;;;;;;;4941740;28;20476;-88
2023/05/25 08:49:13;;;;;;;15.00;4.57;;;27.70;56.90;;;;;;4942138;28;20479;-88
2023/05/25 08:51:49;;;;;;;7.43;3.70;;;27.60;54.90;;;;;;4969680;28;20951;-86
2023/05/25 08:54:18;;;;;;;16.90;5.50;;;26.90;55.20;;;;;;4968697;28;20425;-89
2023/05/25 08:56:50;;;;;;;9.00;4.47;;;27.50;55.70;;;;;;4941238;28;20450;-87
2023/05/25 08:59:36;;;;;;;5.83;4.87;;;28.50;53.80;;;;;;4963210;28;20969;-86
2023/05/25 09:02:23;;;;;;;10.30;5.03;;;28.10;52.70;;;;;;4959040;28;20437;-86
2023/05/25 09:04:49;;;;;;;17.53;7.50;;;;;;;;;;4950890;28;20437;-87
2023/05/25 09:07:15;;;;;;;7.37;4.97;;;;;;;;;;4945786;28;21465;-87
2023/05/25 09:09:42;;;;;;;8.33;5.23;;;25.90;57.10;;;;;;4963595;28;20477;-86
2023/05/25 09:12:08;;;;;;;7.87;5.40;;;;;;;;;;4967570;28;21384;-90
2023/05/25 09:14:36;;;;;;;7.00;4.10;;;;;;;;;;4973071;28;20931;-87
2023/05/25 09:17:02;;;;;;;7.40;4.63;;;;;;;;;;4972881;28;21134;-89
2023/05/25 09:19:28;;;;;;;8.50;4.10;;;;;;;;;;4955052;28;20492;-87
2023/05/25 09:21:54;;;;;;;11.43;4.27;;;;;;;;;;4950694;28;20463;-88
2023/05/25 09:24:21;;;;;;;10.53;4.70;;;25.90;59.80;;;;;;4963075;28;20449;-85
2023/05/25 09:26:48;;;;;;;7.97;4.40;;;;;;;;;;4974382;28;20630;-87
2023/05/25 09:29:15;;;;;;;13.43;4.17;;;;;;;;;;4949115;28;20449;-86
2023/05/25 09:31:41;;;;;;;6.30;4.00;;;;;;;;;;4965819;28;20477;-86
2023/05/25 09:34:14;;;;;;;5.77;3.90;;;26.80;57.40;;;;;;4963161;28;20445;-86
2023/05/25 09:36:42;;;;;;;11.03;5.17;;;27.30;55.00;;;;;;4972056;28;20437;-86
2023/05/25 09:39:09;;;;;;;7.37;4.30;;;26.80;54.80;;;;;;4936675;28;20703;-87
2023/05/25 09:41:35;;;;;;;7.90;4.97;;;;;;;;;;4963687;28;20452;-87
2023/05/25 09:44:01;;;;;;;9.13;5.17;;;;;;;;;;4973663;28;20442;-89
2023/05/25 09:46:27;;;;;;;18.83;5.10;;;;;;;;;;4975418;28;20458;-89
2023/05/25 09:48:53;;;;;;;5.20;4.00;;;25.00;57.40;;;;;;4974359;28;20956;-89
2023/05/25 09:51:20;;;;;;;6.17;4.77;;;24.60;59.90;;;;;;4948626;28;20467;-89
2023/05/25 09:53:46;;;;;;;10.10;4.87;;;24.00;60.80;;;;;;4974127;28;20438;-89
2023/05/25 09:56:12;;;;;;;8.83;5.20;;;;;;;;;;4964389;28;20460;-89
2023/05/25 09:58:38;;;;;;;7.50;4.67;;;;;;;;;;4967096;28;20451;-89
2023/05/25 10:01:04;;;;;;;11.57;4.67;;;24.30;62.30;;;;;;4971954;28;20435;-88
2023/05/25 10:03:30;;;;;;;7.17;4.33;;;;;;;;;;4958587;28;20462;-87
2023/05/25 10:05:56;;;;;;;9.83;4.77;;;;;;;;;;4977380;28;20200;-87
2023/05/25 10:08:24;;;;;;;5.90;4.17;;;;;;;;;;4942990;28;20459;-86
2023/05/25 10:10:50;;;;;;;7.60;4.17;;;;;;;;;;4950382;28;20514;-87
2023/05/25 10:13:19;;;;;;;6.13;4.73;;;24.10;58.60;;;;;;4965568;28;20488;-89
2023/05/25 10:15:47;;;;;;;5.73;4.50;;;24.40;58.70;;;;;;4969532;28;20437;-87
2023/05/25 10:18:15;;;;;;;13.37;4.90;;;23.90;58.30;;;;;;4969691;28;20466;-87
2023/05/25 10:20:45;;;;;;;10.43;4.03;;;24.20;60.00;;;;;;4978352;28;20729;-90
2023/05/25 10:23:15;;;;;;;6.83;4.53;;;23.50;58.80;;;;;;4975567;28;20438;-89
2023/05/25 10:25:45;;;;;;;7.30;4.10;;;23.70;61.10;;;;;;4979522;28;20477;-89
2023/05/25 10:28:18;;;;;;;5.90;3.77;;;23.50;62.00;;;;;;4972823;28;20820;-88
2023/05/25 10:30:45;;;;;;;11.30;4.67;;;23.00;64.10;;;;;;4968370;28;20534;-88
2023/05/25 10:33:11;;;;;;;7.83;4.03;;;23.00;64.80;;;;;;4953868;28;20436;-88
2023/05/25 10:35:38;;;;;;;11.07;4.70;;;22.00;65.30;;;;;;4966088;28;20488;-89
2023/05/25 10:38:05;;;;;;;6.93;4.13;;;20.90;67.50;;;;;;4969020;28;20475;-88
2023/05/25 10:40:31;;;;;;;8.17;4.20;;;20.80;68.20;;;;;;4949954;28;20477;-89
2023/05/25 10:42:57;;;;;;;9.87;4.63;;;20.70;70.20;;;;;;4960488;28;20439;-88
2023/05/25 10:45:23;;;;;;;15.13;4.50;;;20.80;69.10;;;;;;4953084;28;20446;-88
2023/05/25 10:47:49;;;;;;;9.63;4.30;;;;;;;;;;4960911;28;20882;-88
2023/05/25 10:50:25;;;;;;;5.10;4.07;;;20.80;69.40;;;;;;4967051;28;20505;-90
2023/05/25 10:53:10;;;;;;;12.80;4.53;;;20.80;69.30;;;;;;4949352;28;20540;-85
2023/05/25 10:56:01;;;;;;;8.47;4.90;;;20.60;71.70;;;;;;4969913;28;21015;-88
2023/05/25 10:58:29;;;;;;;8.13;4.37;;;20.60;73.70;;;;;;4968935;28;20963;-89
2023/05/25 11:01:07;;;;;;;7.90;3.67;;;20.80;75.40;;;;;;4961310;28;20442;-89
2023/05/25 11:03:48;;;;;;;13.13;5.23;;;20.60;72.90;;;;;;4994000;28;20426;-87
2023/05/25 11:06:15;;;;;;;9.37;4.70;;;20.60;74.10;;;;;;4976630;28;20503;-89
2023/05/25 11:08:53;;;;;;;9.00;4.60;;;20.60;74.90;;;;;;4968658;28;20450;-88
2023/05/25 11:11:18;;;;;;;8.07;4.17;;;20.50;73.90;;;;;;4971939;28;21240;-87
2023/05/25 11:13:45;;;;;;;7.57;5.57;;;20.60;77.90;;;;;;4960356;28;20521;-88
2023/05/25 11:16:36;;;;;;;6.63;3.77;;;20.70;74.20;;;;;;4964223;28;20643;-88
2023/05/25 11:19:03;;;;;;;15.23;4.20;;;20.70;78.70;;;;;;4961660;28;20500;-89
2023/05/25 11:21:31;;;;;;;9.07;5.10;;;21.00;80.00;;;;;;4948507;28;20447;-89
2023/05/25 11:23:58;;;;;;;11.70;4.57;;;21.30;76.40;;;;;;4970844;28;20439;-88
2023/05/25 11:26:25;;;;;;;5.70;5.10;;;21.40;74.30;;;;;;4970468;28;20453;-88
2023/05/25 11:28:52;;;;;;;8.20;4.93;;;;;;;;;;4951051;28;21451;-89
2023/05/25 11:31:28;;;;;;;8.63;4.53;;;21.20;71.60;;;;;;4949704;28;20921;-89
2023/05/25 11:34:01;;;;;;;7.80;4.70;;;21.20;75.50;;;;;;4965354;28;20563;-89
2023/05/25 11:36:30;;;;;;;5.70;4.20;;;21.60;76.10;;;;;;4930705;28;20454;-89
2023/05/25 11:38:56;;;;;;;5.50;4.33;;;21.40;74.40;;;;;;4969985;28;20438;-89
2023/05/25 11:41:23;;;;;;;9.17;5.60;;;;;;;;;;4973927;28;20443;-90
2023/05/25 11:43:50;;;;;;;5.83;3.70;;;21.40;76.40;;;;;;4982569;28;20439;-88
2023/05/25 11:46:20;;;;;;;5.47;3.80;;;21.30;77.10;;;;;;4940758;28;21006;-89
2023/05/25 11:48:51;;;;;;;7.10;4.40;;;21.30;74.80;;;;;;4946087;28;21062;-89
2023/05/25 11:51:17;;;;;;;11.63;3.93;;;;;;;;;;4941084;28;20473;-89
2023/05/25 11:53:44;;;;;;;8.33;3.93;;;21.60;78.10;;;;;;4937034;28;20444;-86
2023/05/25 11:56:14;;;;;;;7.20;4.10;;;21.70;80.20;;;;;;4961448;28;20430;-87
2023/05/25 11:58:40;;;;;;;5.90;4.30;;;;;;;;;;4955075;28;20451;-86
2023/05/25 12:01:20;;;;;;;5.13;3.00;;;21.70;76.10;;;;;;4942442;28;20466;-87
2023/05/25 12:03:47;;;;;;;8.20;5.10;;;21.90;77.60;;;;;;4968896;28;20499;-85
2023/05/25 12:06:30;;;;;;;6.20;3.77;;;21.90;76.10;;;;;;4959680;28;20447;-88
2023/05/25 12:08:56;;;;;;;9.70;3.97;;;21.50;75.20;;;;;;4967240;28;20434;-88
2023/05/25 12:11:33;;;;;;;7.00;3.77;;;21.40;75.80;;;;;;4944005;28;20807;-88
2023/05/25 12:14:00;;;;;;;4.63;3.70;;;21.70;80.10;;;;;;4964550;28;20445;-89
2023/05/25 12:16:27;;;;;;;9.60;4.53;;;;;;;;;;4960711;28;20435;-88
2023/05/25 12:18:53;;;;;;;5.77;3.20;;;;;;;;;;4964777;28;20541;-88
2023/05/25 12:21:22;;;;;;;4.70;3.27;;;22.20;77.30;;;;;;4948116;28;20446;-89
2023/05/25 12:23:49;;;;;;;10.30;4.50;;;22.10;75.30;;;;;;4965491;28;20439;-89
2023/05/25 12:26:16;;;;;;;6.17;3.70;;;22.10;76.70;;;;;;4948984;28;20442;-88
2023/05/25 12:29:03;;;;;;;14.60;4.63;;;22.10;74.80;;;;;;4963137;28;20546;-88
2023/05/25 12:31:32;;;;;;;5.23;4.33;;;22.10;75.70;;;;;;4953576;28;20509;-88
2023/05/25 12:34:12;;;;;;;6.30;4.67;;;22.20;75.70;;;;;;4958843;28;20439;-87
2023/05/25 12:36:51;;;;;;;16.10;4.23;;;22.20;76.70;;;;;;4926551;28;20474;-86
2023/05/25 12:39:29;;;;;;;12.47;4.20;;;22.20;77.50;;;;;;4965960;28;20438;-87
2023/05/25 12:41:58;;;;;;;5.90;3.47;;;21.90;75.20;;;;;;4946780;28;20438;-85
2023/05/25 12:44:30;;;;;;;5.20;3.60;;;21.90;78.50;;;;;;4969366;28;20457;-84
2023/05/25 12:47:09;;;;;;;5.90;3.90;;;22.20;76.40;;;;;;4945839;28;20454;-86
2023/05/25 12:49:35;;;;;;;5.93;3.43;;;;;;;;;;4963131;28;20566;-85
2023/05/25 12:52:03;;;;;;;7.60;4.23;;;22.20;75.00;;;;;;4944217;28;20566;-85
2023/05/25 12:54:45;;;;;;;6.10;4.67;;;22.20;82.70;;;;;;4963217;28;20442;-87
2023/05/25 12:57:16;;;;;;;7.17;4.23;;;22.50;74.20;;;;;;4934201;28;20516;-89
2023/05/25 12:59:46;;;;;;;8.87;5.37;;;22.10;72.50;;;;;;4970299;28;20433;-88
2023/05/25 13:02:13;;;;;;;8.73;4.00;;;22.50;76.60;;;;;;4953617;28;21269;-88
2023/05/25 13:04:39;;;;;;;8.10;3.50;;;22.70;78.60;;;;;;4968087;28;21115;-88
2023/05/25 13:07:07;;;;;;;5.50;3.87;;;22.90;75.40;;;;;;4949950;28;20477;-88
2023/05/25 13:09:34;;;;;;;8.63;3.07;;;;;;;;;;4965581;28;21056;-88
2023/05/25 13:12:01;;;;;;;7.13;3.70;;;22.90;74.80;;;;;;4947356;28;20485;-89
2023/05/25 13:14:28;;;;;;;5.17;4.23;;;22.70;73.70;;;;;;4943688;28;20442;-88
2023/05/25 13:16:55;;;;;;;5.30;3.53;;;22.80;77.50;;;;;;4966236;28;20458;-88
2023/05/25 13:19:23;;;;;;;3.30;2.37;;;22.90;74.90;;;;;;4957462;28;20442;-88